Time;durP1;ratioP1;P1;durP2;ratioP2;P2;SDS_P1;SDS_P2;PMS_P1;PMS_P2;Temp;Humidity;BMP_temperature;BMP_pressure;BME280_temperature;BME280_humidity;BME280_pressure;Samples;Min_cycle;Max_cycle;Signal;HPM_P1;HPM_P2
2023/01/27 00:05:12;;;;;;;;;3.00;3.00;;;;;20.18;56.12;101285.36;111701;1267;18607;-38
2023/01/27 00:07:44;;;;;;;;;3.50;3.50;;;;;20.19;56.18;101288.35;111700;1253;20773;-38
2023/01/27 00:10:12;;;;;;;;;3.00;3.00;;;;;20.18;56.28;101285.63;111794;1250;18253;-38
2023/01/27 00:15:24;;;;;;;;;3.00;3.00;;;;;20.18;55.99;101289.13;111756;1251;20880;-38
2023/01/27 00:17:51;;;;;;;;;4.00;4.00;;;;;20.18;56.26;101288.08;111769;1266;18207;-38
2023/01/27 00:24:34;;;;;;;;;3.00;3.00;;;;;20.18;55.88;101287.09;111782;1250;21237;-38
2023/01/27 00:26:05;;;;;;;;;3.00;3.00;;;;;20.18;55.90;101286.27;111102;1272;19698;-38
2023/01/27 00:28:32;;;;;;;;;3.50;3.00;;;;;20.17;55.92;101288.83;111096;1272;18603;-38
2023/01/27 00:30:59;;;;;;;;;6.00;3.00;;;;;20.17;55.94;101292.33;111016;1272;19356;-39
2023/01/27 00:33:27;;;;;;;;;3.00;3.00;;;;;20.17;55.92;101295.25;110993;1264;19624;-38
2023/01/27 00:35:54;;;;;;;;;3.00;3.00;;;;;20.16;55.86;101291.33;111098;1272;19078;-38
2023/01/27 00:38:21;;;;;;;;;4.00;3.00;;;;;20.17;55.81;101296.48;111043;1272;19370;-38
2023/01/27 00:41:14;;;;;;;;;3.00;3.00;;;;;20.17;55.79;101295.02;111070;1272;18356;-38
2023/01/27 00:43:36;;;;;;;;;4.00;4.00;;;;;20.17;55.85;101295.22;111045;1272;18702;-39
2023/01/27 00:46:03;;;;;;;;;3.00;3.00;;;;;20.17;55.79;101300.69;110971;1273;19369;-39
2023/01/27 00:48:31;;;;;;;;;4.00;3.00;;;;;20.17;55.79;101305.70;111011;1265;19578;-38
2023/01/27 00:50:58;;;;;;;;;5.00;4.00;;;;;20.16;55.93;101301.51;111085;1272;20003;-38
2023/01/27 00:53:25;;;;;;;;;4.00;4.00;;;;;20.17;55.71;101304.54;111045;1272;19379;-38
2023/01/27 00:58:55;;;;;;;;;4.00;3.00;;;;;20.16;55.82;101305.11;111059;1272;18604;-38
2023/01/27 01:01:23;;;;;;;;;4.00;4.00;;;;;20.17;55.85;101306.89;111679;1266;19500;-38
2023/01/27 01:03:50;;;;;;;;;3.00;3.00;;;;;20.17;55.56;101307.98;111773;1266;18574;-38
2023/01/27 01:06:18;;;;;;;;;1.00;1.00;;;;;20.16;55.68;101304.61;111791;1266;20056;-38
2023/01/27 01:08:45;;;;;;;;;3.00;3.00;;;;;20.14;55.87;101307.50;111758;1266;19711;-38
2023/01/27 01:11:13;;;;;;;;;4.00;4.00;;;;;20.14;55.71;101304.95;111768;1266;19709;-38
2023/01/27 01:13:40;;;;;;;;;2.33;2.33;;;;;20.15;55.68;101309.21;111749;1266;20297;-38
2023/01/27 01:16:08;;;;;;;;;3.00;3.00;;;;;20.16;55.74;101310.80;111814;1251;20721;-38
2023/01/27 01:18:35;;;;;;;;;3.00;3.00;;;;;20.16;55.79;101311.52;111777;1266;18299;-37
2023/01/27 01:21:02;;;;;;;;;3.00;3.00;;;;;20.16;55.79;101313.66;111745;1266;20498;-38
2023/01/27 01:23:30;;;;;;;;;3.00;3.00;;;;;20.15;55.65;101314.14;111787;1251;21964;-38
2023/01/27 01:25:57;;;;;;;;;2.00;2.00;;;;;20.15;55.77;101316.00;111762;1266;18215;-38
2023/01/27 01:28:25;;;;;;;;;3.00;3.00;;;;;20.15;55.60;101319.42;111768;1266;18765;-38
2023/01/27 01:30:52;;;;;;;;;3.00;3.00;;;;;20.15;55.55;101320.84;111726;1266;19396;-38
2023/01/27 01:33:20;;;;;;;;;1.00;1.00;;;;;20.15;55.49;101319.61;111785;1250;18643;-38
2023/01/27 01:35:47;;;;;;;;;1.00;1.00;;;;;20.15;55.66;101330.95;111779;1251;18929;-38
2023/01/27 01:38:15;;;;;;;;;3.00;3.00;;;;;20.14;55.50;101324.75;111781;1266;19621;-38
2023/01/27 01:40:42;;;;;;;;;3.00;3.00;;;;;20.14;55.46;101323.83;111712;1266;20683;-38
2023/01/27 01:43:09;;;;;;;;;3.00;3.00;;;;;20.14;55.53;101319.30;111745;1266;18683;-38
2023/01/27 01:45:38;;;;;;;;;3.50;3.50;;;;;20.14;55.67;101313.93;111789;1259;19316;-39
2023/01/27 01:48:05;;;;;;;;;4.00;4.00;;;;;20.13;55.68;101313.05;111771;1266;18293;-38
2023/01/27 01:50:33;;;;;;;;;4.00;4.00;;;;;20.14;55.53;101313.35;111813;1266;18979;-38
2023/01/27 01:53:00;;;;;;;;;2.00;2.00;;;;;20.14;55.54;101310.26;111760;1266;20665;-39
2023/01/27 01:55:28;;;;;;;;;3.50;3.00;;;;;20.13;55.65;101311.48;111766;1266;20930;-37
2023/01/27 01:57:55;;;;;;;;;2.00;2.00;;;;;20.14;55.41;101313.89;111777;1266;18583;-38
2023/01/27 02:00:23;;;;;;;;;1.00;1.00;;;;;20.12;55.51;101312.95;111793;1266;20640;-39
2023/01/27 02:02:50;;;;;;;;;3.00;3.00;;;;;20.12;55.39;101312.09;111794;1250;18204;-39
2023/01/27 02:05:18;;;;;;;;;3.00;2.00;;;;;20.13;55.53;101317.09;111828;1266;18662;-38
2023/01/27 02:07:45;;;;;;;;;2.00;2.00;;;;;20.13;55.56;101316.30;111755;1259;20715;-38
2023/01/27 02:10:12;;;;;;;;;3.00;3.00;;;;;20.12;55.49;101315.70;111762;1266;19822;-38
2023/01/27 02:12:40;;;;;;;;;3.00;3.00;;;;;20.12;55.44;101317.88;111773;1266;20024;-39
2023/01/27 02:15:07;;;;;;;;;1.00;1.00;;;;;20.13;55.43;101313.28;111922;1251;20992;-39
2023/01/27 02:17:35;;;;;;;;;3.00;3.00;;;;;20.12;55.42;101318.95;111852;1267;20192;-38
2023/01/27 02:20:02;;;;;;;;;4.00;3.00;;;;;20.13;55.31;101327.40;111690;1267;21372;-38
2023/01/27 02:22:30;;;;;;;;;3.00;3.00;;;;;20.13;55.47;101327.58;111691;1267;19842;-39
2023/01/27 02:24:57;;;;;;;;;3.00;3.00;;;;;20.13;55.24;101327.80;111717;1253;19572;-37
2023/01/27 02:27:25;;;;;;;;;3.00;3.00;;;;;20.12;55.28;101329.02;111698;1267;19929;-38
2023/01/27 02:29:52;;;;;;;;;3.00;3.00;;;;;20.11;55.50;101331.23;111757;1260;19402;-38
2023/01/27 02:32:19;;;;;;;;;3.00;3.00;;;;;20.12;55.18;101332.23;111687;1267;19759;-38
2023/01/27 02:34:47;;;;;;;;;3.00;3.00;;;;;20.12;55.33;101332.98;111702;1260;20138;-39
2023/01/27 02:37:15;;;;;;;;;4.00;3.00;;;;;20.12;55.49;101334.10;111704;1267;20737;-39
2023/01/27 02:39:42;;;;;;;;;3.00;3.00;;;;;20.11;55.29;101337.94;111697;1252;19632;-39
2023/01/27 02:42:10;;;;;;;;;4.00;3.00;;;;;20.11;55.34;101339.73;111728;1267;19881;-39
2023/01/27 02:44:37;;;;;;;;;3.00;3.00;;;;;20.12;55.33;101340.08;111699;1267;21834;-39
2023/01/27 02:47:05;;;;;;;;;3.00;3.00;;;;;20.12;55.18;101340.40;111698;1252;19663;-39
2023/01/27 02:49:32;;;;;;;;;4.00;4.00;;;;;20.11;55.38;101341.23;111729;1251;20208;-39
2023/01/27 02:52:00;;;;;;;;;3.00;3.00;;;;;20.11;55.41;101338.16;111742;1266;19371;-37
2023/01/27 02:54:27;;;;;;;;;2.00;2.00;;;;;20.11;55.43;101340.16;111765;1251;19620;-39
2023/01/27 02:56:54;;;;;;;;;1.00;1.00;;;;;20.11;55.22;101336.92;111783;1266;20293;-38
2023/01/27 02:59:22;;;;;;;;;3.00;3.00;;;;;20.10;55.28;101335.31;111741;1250;22146;-38
2023/01/27 03:01:49;;;;;;;;;1.00;1.00;;;;;20.10;55.41;101337.86;111775;1266;18424;-39
2023/01/27 03:04:17;;;;;;;;;2.00;2.00;;;;;20.10;55.25;101342.20;111775;1266;20003;-39
2023/01/27 03:06:44;;;;;;;;;1.00;1.00;;;;;20.10;55.33;101342.05;111748;1266;20880;-38
2023/01/27 03:09:12;;;;;;;;;3.00;3.00;;;;;20.11;55.27;101343.61;111760;1266;19788;-39
2023/01/27 03:19:54;;;;;;;;;1.00;1.00;;;;;20.09;55.24;101345.05;111782;1266;18695;-38
2023/01/27 03:22:21;;;;;;;;;3.00;3.00;;;;;20.08;55.26;101339.57;111768;1250;21024;-39
2023/01/27 03:24:48;;;;;;;;;3.00;3.00;;;;;20.08;55.27;101339.88;111788;1266;18253;-39
2023/01/27 03:27:16;;;;;;;;;3.00;3.00;;;;;20.09;55.09;101343.93;111794;1266;18654;-38
2023/01/27 03:29:55;;;;;;;;;4.00;3.00;;;;;20.09;55.09;101342.33;111797;1266;20915;-38
2023/01/27 03:32:23;;;;;;;;;4.00;3.50;;;;;20.09;55.30;101343.63;111820;1266;18197;-38
2023/01/27 03:34:50;;;;;;;;;4.00;3.67;;;;;20.09;55.14;101340.77;111707;1266;20158;-39
2023/01/27 03:48:19;;;;;;;;;4.00;4.00;;;;;20.08;55.19;101338.65;111779;1266;19568;-38
2023/01/27 03:50:51;;;;;;;;;3.00;3.00;;;;;20.08;55.02;101341.51;111767;1266;19965;-38
2023/01/27 03:53:19;;;;;;;;;3.00;3.00;;;;;20.08;55.02;101343.14;111767;1266;20690;-38
2023/01/27 03:55:46;;;;;;;;;4.00;3.00;;;;;20.08;55.05;101340.98;111758;1266;18206;-38
2023/01/27 03:58:18;;;;;;;;;3.00;3.00;;;;;20.07;55.13;101341.95;111810;1251;19868;-38
2023/01/27 04:00:46;;;;;;;;;3.00;3.00;;;;;20.08;55.13;101340.79;111749;1266;20948;-38
2023/01/27 04:08:43;;;;;;;;;4.00;3.00;;;;;20.07;55.11;101336.74;111807;1266;19378;-39
2023/01/27 04:13:55;;;;;;;;;4.00;3.00;;;;;20.07;55.12;101338.45;111754;1266;18678;-38
2023/01/27 04:16:29;;;;;;;;;1.00;1.00;;;;;20.07;54.82;101348.38;111777;1266;20717;-38
2023/01/27 04:18:56;;;;;;;;;3.00;3.00;;;;;20.08;55.10;101355.77;111752;1266;18589;-38
2023/01/27 04:21:24;;;;;;;;;3.00;3.00;;;;;20.06;54.95;101359.70;111774;1266;18799;-38
2023/01/27 04:23:51;;;;;;;;;3.00;3.00;;;;;20.07;54.98;101361.98;111767;1266;20694;-38
2023/01/27 04:26:19;;;;;;;;;3.00;2.00;;;;;20.06;54.89;101361.54;111783;1266;18616;-39
2023/01/27 04:28:46;;;;;;;;;3.00;3.00;;;;;20.07;54.86;101365.42;111745;1266;21095;-38
2023/01/27 04:31:14;;;;;;;;;3.00;3.00;;;;;20.08;54.90;101370.77;111800;1251;20800;-38
2023/01/27 04:33:41;;;;;;;;;3.00;3.00;;;;;20.07;55.13;101374.12;111752;1266;18233;-38
2023/01/27 04:36:09;;;;;;;;;4.00;3.00;;;;;20.06;54.86;101380.22;111745;1266;19956;-38
2023/01/27 04:38:36;;;;;;;;;3.00;3.00;;;;;20.06;54.79;101380.01;111765;1266;20733;-37
2023/01/27 04:41:04;;;;;;;;;3.00;3.00;;;;;20.06;54.82;101383.48;111757;1266;19814;-38
2023/01/27 04:43:31;;;;;;;;;3.00;3.00;;;;;20.07;54.78;101383.95;111753;1251;20080;-38
2023/01/27 04:45:59;;;;;;;;;5.00;5.00;;;;;20.06;54.85;101384.39;111788;1250;20923;-38
2023/01/27 04:48:26;;;;;;;;;3.00;3.00;;;;;20.05;54.97;101379.63;111892;1266;19636;-37
2023/01/27 04:50:54;;;;;;;;;2.00;2.00;;;;;20.05;54.84;101386.84;111933;1266;18629;-39
2023/01/27 04:53:21;;;;;;;;;3.00;1.00;;;;;20.05;55.00;101385.60;111849;1266;21137;-37
2023/01/27 04:55:48;;;;;;;;;3.00;3.00;;;;;20.05;54.99;101392.71;111792;1266;18189;-37
2023/01/27 04:58:16;;;;;;;;;3.00;3.00;;;;;20.05;54.92;101395.17;111766;1259;18935;-38
2023/01/27 05:00:44;;;;;;;;;1.00;1.00;;;;;20.06;54.96;101396.05;111767;1266;21024;-37
2023/01/27 05:03:11;;;;;;;;;3.00;3.00;;;;;20.05;54.92;101398.60;111773;1259;18908;-38
2023/01/27 05:05:39;;;;;;;;;3.00;3.00;;;;;20.06;54.89;101398.78;111764;1266;20164;-38
2023/01/27 05:08:06;;;;;;;;;4.00;4.00;;;;;20.06;54.92;101398.01;111764;1259;22323;-38
2023/01/27 05:10:33;;;;;;;;;6.00;4.00;;;;;20.06;54.75;101399.63;111801;1251;19637;-38
2023/01/27 05:13:01;;;;;;;;;3.00;3.00;;;;;20.06;54.66;101403.64;111760;1266;18498;-38
2023/01/27 05:15:29;;;;;;;;;4.00;4.00;;;;;20.05;54.90;101402.11;111788;1251;21145;-38
2023/01/27 05:17:56;;;;;;;;;3.50;3.00;;;;;20.06;54.77;101404.40;111739;1266;19720;-38
2023/01/27 05:20:24;;;;;;;;;3.00;3.00;;;;;20.05;54.88;101405.20;111795;1266;20462;-38
2023/01/27 05:23:33;;;;;;;;;3.33;3.00;;;;;20.04;54.90;101407.95;111636;1266;22040;-39
2023/01/27 05:25:39;;;;;;;;;3.00;3.00;;;;;20.03;54.77;101407.59;111780;1251;19994;-38
2023/01/27 05:28:06;;;;;;;;;4.00;4.00;;;;;20.03;54.87;101407.35;111788;1250;21300;-38
2023/01/27 05:30:33;;;;;;;;;3.50;3.00;;;;;20.04;54.72;101413.42;111638;1266;22062;-38
2023/01/27 05:33:01;;;;;;;;;3.50;3.50;;;;;20.03;54.66;101414.80;111768;1266;18197;-39
2023/01/27 05:35:31;;;;;;;;;3.00;3.00;;;;;20.03;54.71;101417.86;111802;1251;20194;-37
2023/01/27 05:37:58;;;;;;;;;3.00;3.00;;;;;20.04;54.84;101420.92;111791;1266;19348;-38
2023/01/27 05:40:26;;;;;;;;;4.00;3.00;;;;;20.03;54.71;101426.09;111760;1266;19569;-38
2023/01/27 05:42:53;;;;;;;;;4.00;3.00;;;;;20.02;54.63;101427.20;111775;1266;20006;-38
2023/01/27 05:45:20;;;;;;;;;3.00;3.00;;;;;20.03;54.66;101427.31;111780;1266;20828;-38
2023/01/27 05:47:48;;;;;;;;;1.00;1.00;;;;;20.03;54.72;101424.26;111714;1251;19880;-38
2023/01/27 05:50:15;;;;;;;;;4.00;3.00;;;;;20.03;54.88;101422.60;111725;1266;19998;-38
2023/01/27 05:52:43;;;;;;;;;3.33;3.33;;;;;20.07;54.79;101420.63;111663;1260;19332;-38
2023/01/27 05:55:10;;;;;;;;;3.00;3.00;;;;;20.09;54.72;101422.14;111577;1259;19793;-38
2023/01/27 05:57:38;;;;;;;;;4.00;3.00;;;;;20.10;54.79;101425.75;111481;1266;19987;-38
2023/01/27 06:00:05;;;;;;;;;5.33;5.33;;;;;20.10;54.87;101429.10;111469;1266;20605;-38
2023/01/27 06:02:33;;;;;;;;;81.00;65.00;;;;;20.13;55.00;101426.34;111473;1266;19614;-39
2023/01/27 06:05:00;;;;;;;;;92.00;72.00;;;;;20.18;55.48;101428.14;111457;1266;20301;-38
2023/01/27 06:07:28;;;;;;;;;77.00;59.00;;;;;20.22;56.07;101427.38;111469;1266;21063;-38
2023/01/27 06:09:55;;;;;;;;;59.00;48.00;;;;;20.23;56.39;101428.36;111448;1266;18571;-38
2023/01/27 06:12:23;;;;;;;;;51.00;39.00;;;;;20.24;56.37;101426.23;111597;1266;20252;-40
2023/01/27 06:14:50;;;;;;;;;40.00;34.00;;;;;20.23;56.40;101427.83;111685;1253;19365;-38
2023/01/27 06:17:18;;;;;;;;;34.00;30.00;;;;;20.21;56.38;101428.70;111755;1266;18616;-38
2023/01/27 06:19:45;;;;;;;;;31.00;27.67;;;;;20.20;56.32;101435.20;111761;1266;18739;-39
2023/01/27 06:22:13;;;;;;;;;30.00;25.00;;;;;20.19;56.28;101434.55;111781;1266;19330;-38
2023/01/27 06:24:40;;;;;;;;;27.00;24.00;;;;;20.18;56.28;101439.19;111820;1251;18809;-38
2023/01/27 06:27:07;;;;;;;;;18.00;16.00;;;;;20.18;56.55;101442.51;111802;1266;19978;-38
2023/01/27 06:29:35;;;;;;;;;21.00;19.00;;;;;20.18;56.48;101444.99;111745;1266;19399;-38
2023/01/27 06:32:02;;;;;;;;;13.00;13.00;;;;;20.18;56.55;101447.52;111752;1266;19922;-38
2023/01/27 06:34:30;;;;;;;;;19.00;15.00;;;;;20.17;56.51;101445.80;111765;1266;18861;-38
2023/01/27 06:36:57;;;;;;;;;19.00;15.00;;;;;20.16;56.54;101448.33;111702;1266;20741;-38
2023/01/27 06:39:25;;;;;;;;;13.00;13.00;;;;;20.15;56.69;101453.69;111721;1267;18718;-38
2023/01/27 06:41:52;;;;;;;;;12.00;11.33;;;;;20.13;56.60;101455.45;111702;1267;18728;-38
2023/01/27 09:09:51;;;;;;;;;34.50;30.00;;;;;20.30;57.85;101574.29;104920;1260;63056;-77
2023/01/27 09:12:19;;;;;;;;;42.00;33.00;;;;;20.30;57.72;101575.06;111422;1270;19756;-79
2023/01/27 09:14:46;;;;;;;;;32.00;26.50;;;;;20.30;58.00;101573.60;111394;1254;18812;-78
2023/01/27 09:17:18;;;;;;;;;29.33;23.33;;;;;20.30;57.93;101575.34;111388;1270;18984;-77
2023/01/27 09:19:45;;;;;;;;;26.00;24.00;;;;;20.29;57.86;101574.59;111386;1270;20768;-81
2023/01/27 09:22:13;;;;;;;;;19.00;18.00;;;;;20.27;57.68;101580.54;111401;1270;19927;-82
2023/01/27 09:24:40;;;;;;;;;;;;;;;20.28;57.63;101584.23;111424;1270;18870;-79
2023/01/27 09:27:08;;;;;;;;;21.00;19.00;;;;;20.30;57.50;101585.76;111186;1254;20981;-84
2023/01/27 09:29:36;;;;;;;;;18.00;16.00;;;;;20.31;57.46;101587.80;111414;1270;18184;-77
2023/01/27 09:32:04;;;;;;;;;18.00;18.00;;;;;20.31;57.61;101591.27;111435;1270;20414;-80
2023/01/27 09:34:31;;;;;;;;;15.50;14.00;;;;;20.32;57.72;101590.83;111420;1270;19679;-78
2023/01/27 09:36:58;;;;;;;;;16.00;15.00;;;;;20.33;57.65;101593.77;111422;1270;18607;-76
2023/01/27 09:39:26;;;;;;;;;16.00;13.00;;;;;20.34;57.88;101600.36;111414;1254;20938;-78
2023/01/27 09:41:53;;;;;;;;;10.00;9.00;;;;;20.35;58.13;101599.61;111413;1270;20801;-76
2023/01/27 09:44:21;;;;;;;;;14.50;11.50;;;;;20.34;57.98;101598.59;111392;1270;21382;-79
2023/01/27 09:46:49;;;;;;;;;12.00;10.00;;;;;20.31;58.15;101592.73;111425;1270;20012;-78
2023/01/27 09:49:16;;;;;;;;;10.00;10.00;;;;;20.31;58.13;101588.95;111113;1257;20857;-80
2023/01/27 09:51:44;;;;;;;;;12.50;10.00;;;;;20.32;58.14;101591.31;111420;1270;18929;-77
2023/01/27 09:54:11;;;;;;;;;10.00;9.00;;;;;20.34;57.97;101592.80;111413;1254;19041;-80
2023/01/27 09:56:39;;;;;;;;;10.00;9.00;;;;;20.33;58.10;101595.77;111405;1270;21030;-78
2023/01/27 09:59:06;;;;;;;;;7.00;7.00;;;;;20.34;58.22;101594.63;111367;1270;19977;-77
2023/01/27 10:01:33;;;;;;;;;10.67;9.67;;;;;20.34;58.07;101588.80;111389;1269;18672;-80
2023/01/27 10:04:01;;;;;;;;;9.00;9.00;;;;;20.34;57.83;101591.35;111410;1270;20723;-78
2023/01/27 10:06:28;;;;;;;;;13.00;10.00;;;;;20.32;57.80;101592.05;111420;1270;18951;-82
2023/01/27 10:08:56;;;;;;;;;13.00;10.00;;;;;20.33;57.78;101588.73;111427;1262;20079;-80
2023/01/27 10:11:23;;;;;;;;;15.00;9.00;;;;;20.36;57.28;101589.31;111415;1262;19539;-80
2023/01/27 10:13:51;;;;;;;;;9.00;9.00;;;;;20.37;57.35;101594.13;111402;1254;20242;-78
2023/01/27 10:16:19;;;;;;;;;9.00;7.00;;;;;20.37;57.58;101592.26;111381;1270;20001;-78
2023/01/27 10:18:46;;;;;;;;;7.00;6.00;;;;;20.38;57.89;101593.42;111410;1270;19888;-76
2023/01/27 10:21:13;;;;;;;;;7.00;7.00;;;;;20.38;57.76;101597.81;111384;1270;21250;-78
2023/01/27 10:23:41;;;;;;;;;10.00;7.00;;;;;20.35;57.88;101597.92;111422;1263;18734;-76
2023/01/27 10:26:08;;;;;;;;;10.00;9.00;;;;;20.35;57.78;101601.94;111424;1270;20757;-78
2023/01/27 10:28:36;;;;;;;;;9.00;7.00;;;;;20.38;58.02;101605.80;111437;1254;20298;-82
2023/01/27 10:31:03;;;;;;;;;12.00;9.00;;;;;20.38;57.78;101602.01;111452;1270;18511;-83
2023/01/27 10:33:31;;;;;;;;;7.00;7.00;;;;;20.36;57.58;101600.89;111624;1263;19789;-79
2023/01/27 10:35:58;;;;;;;;;9.50;6.50;;;;;20.34;57.25;101600.41;111405;1270;21029;-78
2023/01/27 10:38:26;;;;;;;;;7.00;7.00;;;;;20.32;57.22;101604.00;111454;1270;20434;-87
2023/01/27 10:40:54;;;;;;;;;9.00;7.00;;;;;20.32;57.47;101602.55;111401;1270;21963;-81
2023/01/27 10:43:21;;;;;;;;;7.00;6.00;;;;;20.31;57.46;101599.03;111412;1270;18246;-77
2023/01/27 10:45:49;;;;;;;;;9.00;7.00;;;;;20.32;57.14;101602.03;111430;1263;18692;-78
2023/01/27 10:48:16;;;;;;;;;9.33;7.67;;;;;20.31;56.65;101604.65;111430;1270;20874;-78
2023/01/27 10:50:44;;;;;;;;;12.00;10.00;;;;;20.31;56.74;101606.52;111387;1270;19772;-75
2023/01/27 10:53:11;;;;;;;;;18.50;15.50;;;;;20.22;56.25;101616.05;111433;1254;20185;-75
2023/01/27 10:55:38;;;;;;;;;14.00;11.00;;;;;19.99;53.94;101610.70;111379;1270;19724;-72
2023/01/27 10:58:06;;;;;;;;;24.00;21.50;;;;;19.94;53.20;101615.39;111394;1270;20100;-71
2023/01/27 11:00:33;;;;;;;;;32.00;23.50;;;;;19.74;51.03;101614.44;111397;1262;18963;-71
2023/01/27 11:03:01;;;;;;;;;31.00;27.00;;;;;19.32;47.46;101618.89;111380;1270;19497;-71
2023/01/27 11:05:28;;;;;;;;;28.00;26.50;;;;;19.04;45.04;101616.67;111433;1270;19995;-72
2023/01/27 11:07:56;;;;;;;;;38.00;31.00;;;;;18.80;42.93;101618.65;111388;1263;18767;-71
2023/01/27 11:10:23;;;;;;;;;34.00;26.00;;;;;18.60;41.21;101621.08;111405;1270;21040;-72
2023/01/27 11:12:51;;;;;;;;;26.00;26.00;;;;;18.45;40.23;101623.21;111421;1270;18793;-72
2023/01/27 11:15:18;;;;;;;;;33.00;26.00;;;;;18.31;39.85;101620.46;111445;1270;18922;-72
2023/01/27 11:17:46;;;;;;;;;33.00;28.50;;;;;18.28;39.33;101617.84;111444;1270;19276;-74
2023/01/27 11:20:13;;;;;;;;;21.50;21.50;;;;;18.24;39.03;101615.11;111600;1270;18654;-73
2023/01/27 11:22:41;;;;;;;;;22.00;19.00;;;;;18.49;39.87;101609.04;111626;1270;18767;-73
2023/01/27 11:25:08;;;;;;;;;30.00;26.00;;;;;18.80;40.32;101612.33;111530;1263;19545;-74
2023/01/27 11:27:36;;;;;;;;;18.50;17.00;;;;;19.01;41.03;101609.84;111453;1254;20009;-71
2023/01/27 11:30:06;;;;;;;;;;;;;;;19.18;41.75;101611.64;111391;1270;20086;-71
2023/01/27 11:32:34;;;;;;;;;25.00;20.00;;;;;19.28;42.18;101610.92;111405;1270;21973;-72
2023/01/27 11:35:01;;;;;;;;;17.00;12.00;;;;;19.36;42.79;101611.60;111392;1270;18226;-71
2023/01/27 11:37:29;;;;;;;;;12.00;12.00;;;;;19.41;43.30;101610.20;111406;1270;20104;-71
2023/01/27 11:39:56;;;;;;;;;15.00;10.00;;;;;19.45;43.75;101606.17;111373;1270;20871;-70
2023/01/27 11:42:24;;;;;;;;;12.00;10.67;;;;;19.49;44.17;101611.98;111387;1270;19328;-69
2023/01/27 11:44:51;;;;;;;;;13.00;11.00;;;;;19.53;44.39;101613.05;111358;1264;20328;-71
2023/01/27 11:47:19;;;;;;;;;12.00;12.00;;;;;19.55;44.45;101614.82;111423;1270;19399;-71
2023/01/27 11:49:46;;;;;;;;;15.00;12.00;;;;;19.54;44.77;101613.28;111375;1262;19940;-72
2023/01/27 11:52:14;;;;;;;;;10.00;9.50;;;;;19.56;45.31;101614.94;111401;1269;19108;-71
2023/01/27 11:54:42;;;;;;;;;10.00;9.00;;;;;19.58;45.54;101618.51;111426;1254;19505;-71
2023/01/27 11:57:09;;;;;;;;;12.00;9.67;;;;;19.60;45.70;101615.46;111448;1254;18803;-72
2023/01/27 11:59:36;;;;;;;;;7.00;7.00;;;;;19.61;45.90;101618.07;111161;1265;20152;-72
2023/01/27 12:02:04;;;;;;;;;9.00;9.00;;;;;19.63;46.00;101611.77;111439;1270;20878;-72
2023/01/27 12:04:31;;;;;;;;;9.00;8.00;;;;;19.63;46.10;101610.08;111372;1270;18558;-71
2023/01/27 12:06:59;;;;;;;;;10.00;10.00;;;;;19.64;46.24;101608.34;111416;1270;19972;-70
2023/01/27 12:09:26;;;;;;;;;9.00;8.00;;;;;19.66;46.39;101609.10;111386;1270;20958;-71
2023/01/27 12:11:54;;;;;;;;;9.00;8.00;;;;;19.70;46.49;101608.38;111410;1270;18852;-72
2023/01/27 12:14:21;;;;;;;;;6.00;6.00;;;;;19.70;46.77;101607.19;111391;1256;20543;-72
2023/01/27 12:16:49;;;;;;;;;9.50;8.00;;;;;19.73;46.98;101606.59;111139;1270;20790;-74
2023/01/27 12:19:16;;;;;;;;;7.00;6.00;;;;;19.77;47.28;101607.83;111454;1270;18679;-71
2023/01/27 12:21:44;;;;;;;;;7.00;7.00;;;;;19.80;48.07;101604.87;111425;1254;18875;-72
2023/01/27 12:24:11;;;;;;;;;8.00;7.00;;;;;19.83;48.56;101601.95;111401;1270;19410;-71
2023/01/27 12:26:39;;;;;;;;;7.67;7.00;;;;;19.86;49.15;101604.63;111417;1254;19747;-72
2023/01/27 12:29:06;;;;;;;;;7.00;6.00;;;;;19.87;50.15;101603.98;111424;1270;18880;-69
2023/01/27 12:31:34;;;;;;;;;6.67;6.00;;;;;19.89;50.96;101603.93;111423;1263;19241;-71
2023/01/27 12:34:01;;;;;;;;;4.00;4.00;;;;;19.90;51.24;101602.41;111415;1270;18753;-72
2023/01/27 12:36:28;;;;;;;;;6.00;6.00;;;;;19.90;51.56;101599.25;111399;1263;18925;-72
2023/01/27 12:38:56;;;;;;;;;4.67;4.67;;;;;19.90;51.55;101602.55;111414;1254;19733;-76
2023/01/27 12:41:24;;;;;;;;;6.00;6.00;;;;;19.90;51.50;101601.46;111402;1270;19509;-75
2023/01/27 12:43:51;;;;;;;;;9.00;7.00;;;;;19.93;52.05;101596.27;111399;1270;18979;-74
2023/01/27 12:46:18;;;;;;;;;6.00;6.00;;;;;19.96;52.39;101601.44;111425;1270;19400;-75
2023/01/27 12:48:46;;;;;;;;;7.50;6.00;;;;;19.95;52.92;101599.86;111389;1270;19805;-73
2023/01/27 12:51:13;;;;;;;;;6.00;6.00;;;;;19.96;53.02;101601.05;111427;1270;20304;-73
2023/01/27 12:53:42;;;;;;;;;6.00;6.00;;;;;19.97;52.98;101601.88;111379;1270;20700;-74
2023/01/27 12:56:10;;;;;;;;;4.00;4.00;;;;;19.97;53.21;101605.84;111410;1254;19859;-74
2023/01/27 12:58:38;;;;;;;;;6.50;6.00;;;;;19.98;53.17;101606.27;111419;1256;20920;-73
2023/01/27 13:01:05;;;;;;;;;7.00;6.00;;;;;19.98;53.28;101604.81;111422;1263;20862;-74
2023/01/27 13:03:33;;;;;;;;;6.50;4.00;;;;;19.97;53.11;101608.73;111416;1263;18607;-74
2023/01/27 13:06:00;;;;;;;;;5.00;4.00;;;;;19.96;53.26;101612.63;111404;1270;18773;-74
2023/01/27 13:08:28;;;;;;;;;7.00;6.00;;;;;19.96;53.40;101612.35;111439;1269;19980;-74
2023/01/27 13:10:55;;;;;;;;;4.00;3.50;;;;;19.94;53.26;101609.92;111405;1270;18222;-72
2023/01/27 13:13:23;;;;;;;;;3.67;3.67;;;;;19.96;53.47;101605.73;111399;1270;18822;-73
2023/01/27 13:15:50;;;;;;;;;56.00;39.00;;;;;19.99;53.50;101608.05;111427;1262;19560;-73
2023/01/27 13:18:18;;;;;;;;;80.50;60.00;;;;;19.98;53.48;101614.50;111402;1270;19816;-73
2023/01/27 13:20:45;;;;;;;;;95.00;71.00;;;;;19.98;53.67;101615.90;111408;1270;21407;-73
2023/01/27 13:23:13;;;;;;;;;95.00;66.00;;;;;20.00;53.67;101617.52;111412;1270;19738;-71
2023/01/27 13:25:40;;;;;;;;;;;;;;;20.02;53.63;101613.75;111390;1270;20110;-71
2023/01/27 13:28:08;;;;;;;;;60.00;52.00;;;;;20.04;53.81;101617.21;111429;1270;18535;-73
2023/01/27 13:30:35;;;;;;;;;57.00;45.00;;;;;20.04;53.77;101623.16;111416;1256;20766;-74
2023/01/27 13:33:03;;;;;;;;;51.00;41.00;;;;;20.04;54.02;101624.06;111418;1270;18820;-75
2023/01/27 13:35:30;;;;;;;;;37.50;31.50;;;;;20.05;53.70;101629.08;111442;1256;20583;-75
2023/01/27 13:37:58;;;;;;;;;31.00;26.50;;;;;20.05;53.92;101631.41;111391;1270;19485;-75
2023/01/27 13:40:25;;;;;;;;;42.00;27.00;;;;;20.03;53.81;101625.59;111422;1270;18778;-75
2023/01/27 13:42:53;;;;;;;;;32.00;24.00;;;;;20.07;54.09;101632.46;111414;1270;20307;-75
2023/01/27 13:45:20;;;;;;;;;24.00;22.00;;;;;20.08;54.10;101630.02;111416;1254;20916;-73
2023/01/27 13:47:47;;;;;;;;;22.00;19.00;;;;;20.10;54.30;101630.41;111383;1270;21625;-75
2023/01/27 13:50:15;;;;;;;;;18.00;18.00;;;;;20.09;54.22;101630.42;111399;1262;21173;-74
2023/01/27 13:52:43;;;;;;;;;18.00;15.00;;;;;20.15;54.47;101634.25;111421;1270;21029;-74
2023/01/27 13:55:10;;;;;;;;;16.50;15.00;;;;;20.14;54.29;101633.54;111359;1270;20345;-73
2023/01/27 13:57:38;;;;;;;;;20.50;17.50;;;;;20.14;54.76;101634.63;111392;1263;20129;-74
2023/01/27 14:00:05;;;;;;;;;12.50;12.00;;;;;20.17;54.93;101635.23;111358;1270;19739;-71
2023/01/27 14:02:33;;;;;;;;;13.00;10.00;;;;;20.19;54.90;101633.23;111394;1269;18692;-73
2023/01/27 14:05:01;;;;;;;;;10.00;9.00;;;;;20.18;54.91;101632.12;111393;1269;18848;-73
2023/01/27 14:07:28;;;;;;;;;10.00;9.00;;;;;20.12;54.97;101635.56;111398;1270;20732;-73
2023/01/27 14:09:55;;;;;;;;;9.00;7.00;;;;;20.09;54.89;101636.98;111417;1270;19999;-73
2023/01/27 14:12:23;;;;;;;;;11.33;9.00;;;;;20.07;54.78;101640.63;111415;1270;21332;-72
2023/01/27 14:14:50;;;;;;;;;12.00;7.00;;;;;20.07;54.91;101644.98;111394;1269;19527;-73
2023/01/27 14:17:25;;;;;;;;;9.00;7.00;;;;;20.07;54.74;101645.88;111405;1262;19927;-73
2023/01/27 14:19:52;;;;;;;;;7.00;7.00;;;;;20.07;54.64;101642.88;111411;1270;18985;-73